sensor_id;sensor_type;location;lat;lon;timestamp;P1;durP1;ratioP1;P2;durP2;ratioP2
58123;SDS011;46725;48.068;20.832;2022-08-01T12:45:45;2.70;;;1.10;;
58123;SDS011;46725;48.068;20.832;2022-08-01T12:48:13;3.55;;;1.45;;
58123;SDS011;46725;48.068;20.832;2022-08-01T12:50:41;2.00;;;0.88;;
58123;SDS011;46725;48.068;20.832;2022-08-01T12:53:10;3.72;;;1.40;;
58123;SDS011;46725;48.068;20.832;2022-08-01T12:55:54;3.42;;;1.33;;
58123;SDS011;46725;48.068;20.832;2022-08-01T13:00:47;5.10;;;1.40;;
58123;SDS011;46725;48.068;20.832;2022-08-01T13:03:18;4.38;;;1.23;;
58123;SDS011;46725;48.068;20.832;2022-08-01T13:05:45;5.20;;;1.13;;
58123;SDS011;46725;48.068;20.832;2022-08-01T13:08:15;3.30;;;1.40;;
58123;SDS011;46725;48.068;20.832;2022-08-01T13:10:41;3.28;;;1.20;;
58123;SDS011;46725;48.068;20.832;2022-08-01T13:13:07;4.40;;;1.45;;
58123;SDS011;46725;48.068;20.832;2022-08-01T13:15:34;3.15;;;1.17;;
58123;SDS011;46725;48.068;20.832;2022-08-01T13:18:21;2.88;;;1.25;;
58123;SDS011;46725;48.068;20.832;2022-08-01T13:20:47;3.33;;;1.23;;
58123;SDS011;46725;48.068;20.832;2022-08-01T13:23:17;3.97;;;1.40;;
58123;SDS011;46725;48.068;20.832;2022-08-01T13:25:53;4.85;;;1.65;;
58123;SDS011;46725;48.068;20.832;2022-08-01T13:28:24;3.88;;;1.38;;
58123;SDS011;46725;48.068;20.832;2022-08-01T13:30:51;3.20;;;1.27;;
58123;SDS011;46725;48.068;20.832;2022-08-01T13:33:17;2.60;;;1.13;;
58123;SDS011;46725;48.068;20.832;2022-08-01T13:35:43;2.88;;;1.35;;
58123;SDS011;46725;48.068;20.832;2022-08-01T13:38:11;2.80;;;1.30;;
58123;SDS011;46725;48.068;20.832;2022-08-01T13:40:37;3.85;;;1.10;;
58123;SDS011;46725;48.068;20.832;2022-08-01T13:43:03;3.33;;;1.30;;
58123;SDS011;46725;48.068;20.832;2022-08-01T13:45:29;2.63;;;1.02;;
58123;SDS011;46725;48.068;20.832;2022-08-01T13:47:55;14.02;;;1.30;;
58123;SDS011;46725;48.068;20.832;2022-08-01T13:50:21;2.53;;;1.10;;
58123;SDS011;46725;48.068;20.832;2022-08-01T13:52:47;4.85;;;1.00;;
58123;SDS011;46725;48.068;20.832;2022-08-01T13:55:13;4.82;;;1.10;;
58123;SDS011;46725;48.068;20.832;2022-08-01T13:57:39;2.70;;;1.10;;
58123;SDS011;46725;48.068;20.832;2022-08-01T14:00:06;2.72;;;1.13;;
58123;SDS011;46725;48.068;20.832;2022-08-01T14:02:32;4.32;;;1.05;;
58123;SDS011;46725;48.068;20.832;2022-08-01T14:04:59;2.50;;;0.90;;
58123;SDS011;46725;48.068;20.832;2022-08-01T14:07:26;5.05;;;1.63;;
58123;SDS011;46725;48.068;20.832;2022-08-01T14:09:52;3.65;;;1.00;;
58123;SDS011;46725;48.068;20.832;2022-08-01T14:12:18;2.63;;;1.10;;
58123;SDS011;46725;48.068;20.832;2022-08-01T14:14:44;5.10;;;1.23;;
58123;SDS011;46725;48.068;20.832;2022-08-01T14:17:10;2.28;;;0.90;;
58123;SDS011;46725;48.068;20.832;2022-08-01T14:19:36;2.70;;;1.13;;
58123;SDS011;46725;48.068;20.832;2022-08-01T14:22:02;2.92;;;1.13;;
58123;SDS011;46725;48.068;20.832;2022-08-01T14:24:29;3.88;;;1.25;;
58123;SDS011;46725;48.068;20.832;2022-08-01T14:26:55;2.95;;;1.08;;
58123;SDS011;46725;48.068;20.832;2022-08-01T14:29:21;2.80;;;1.00;;
58123;SDS011;46725;48.068;20.832;2022-08-01T14:31:47;2.50;;;1.17;;
58123;SDS011;46725;48.068;20.832;2022-08-01T14:34:13;5.32;;;1.30;;
58123;SDS011;46725;48.068;20.832;2022-08-01T14:36:39;5.70;;;1.17;;
58123;SDS011;46725;48.068;20.832;2022-08-01T14:39:05;2.10;;;0.90;;
58123;SDS011;46725;48.068;20.832;2022-08-01T14:41:31;3.67;;;1.40;;
58123;SDS011;46725;48.068;20.832;2022-08-01T14:43:57;3.88;;;1.00;;
58123;SDS011;46725;48.068;20.832;2022-08-01T14:46:24;5.05;;;1.67;;
58123;SDS011;46725;48.068;20.832;2022-08-01T14:48:50;3.50;;;1.30;;
58123;SDS011;46725;48.068;20.832;2022-08-01T14:51:16;4.13;;;1.17;;
58123;SDS011;46725;48.068;20.832;2022-08-01T14:53:43;2.67;;;1.00;;
58123;SDS011;46725;48.068;20.832;2022-08-01T14:56:09;2.47;;;1.10;;
58123;SDS011;46725;48.068;20.832;2022-08-01T14:58:35;2.80;;;1.23;;
58123;SDS011;46725;48.068;20.832;2022-08-01T15:01:01;4.47;;;1.10;;
58123;SDS011;46725;48.068;20.832;2022-08-01T15:03:29;3.90;;;1.40;;
58123;SDS011;46725;48.068;20.832;2022-08-01T15:05:56;4.85;;;1.35;;
58123;SDS011;46725;48.068;20.832;2022-08-01T15:08:23;3.25;;;1.20;;
58123;SDS011;46725;48.068;20.832;2022-08-01T15:10:49;2.33;;;0.95;;
58123;SDS011;46725;48.068;20.832;2022-08-01T15:13:15;3.47;;;1.35;;
58123;SDS011;46725;48.068;20.832;2022-08-01T15:15:41;3.72;;;1.42;;
58123;SDS011;46725;48.068;20.832;2022-08-01T15:18:07;3.28;;;1.40;;
58123;SDS011;46725;48.068;20.832;2022-08-01T15:20:33;3.20;;;1.40;;
58123;SDS011;46725;48.068;20.832;2022-08-01T15:22:59;2.70;;;1.17;;
58123;SDS011;46725;48.068;20.832;2022-08-01T15:25:25;4.05;;;1.30;;
58123;SDS011;46725;48.068;20.832;2022-08-01T15:27:51;4.82;;;1.77;;
58123;SDS011;46725;48.068;20.832;2022-08-01T15:30:17;4.65;;;1.50;;
58123;SDS011;46725;48.068;20.832;2022-08-01T15:32:43;3.67;;;1.33;;
58123;SDS011;46725;48.068;20.832;2022-08-01T15:35:09;3.42;;;1.13;;
58123;SDS011;46725;48.068;20.832;2022-08-01T15:37:36;7.20;;;1.52;;
58123;SDS011;46725;48.068;20.832;2022-08-01T15:40:02;3.25;;;1.30;;
58123;SDS011;46725;48.068;20.832;2022-08-01T15:42:28;3.10;;;1.58;;
58123;SDS011;46725;48.068;20.832;2022-08-01T15:44:54;6.07;;;1.50;;
58123;SDS011;46725;48.068;20.832;2022-08-01T15:47:20;3.65;;;1.48;;
58123;SDS011;46725;48.068;20.832;2022-08-01T15:49:46;5.43;;;2.25;;
58123;SDS011;46725;48.068;20.832;2022-08-01T15:52:12;4.53;;;1.58;;
58123;SDS011;46725;48.068;20.832;2022-08-01T15:54:38;3.15;;;1.33;;
58123;SDS011;46725;48.068;20.832;2022-08-01T15:57:05;2.90;;;1.50;;
58123;SDS011;46725;48.068;20.832;2022-08-01T15:59:32;2.65;;;1.25;;
58123;SDS011;46725;48.068;20.832;2022-08-01T16:01:58;3.80;;;1.38;;
58123;SDS011;46725;48.068;20.832;2022-08-01T16:04:24;4.10;;;1.75;;
58123;SDS011;46725;48.068;20.832;2022-08-01T16:06:50;3.50;;;1.67;;
58123;SDS011;46725;48.068;20.832;2022-08-01T16:09:16;6.95;;;1.55;;
58123;SDS011;46725;48.068;20.832;2022-08-01T16:11:43;11.90;;;1.98;;
58123;SDS011;46725;48.068;20.832;2022-08-01T16:14:09;3.22;;;1.45;;
58123;SDS011;46725;48.068;20.832;2022-08-01T17:49:10;5.35;;;2.28;;
58123;SDS011;46725;48.068;20.832;2022-08-01T19:29:44;7.43;;;3.10;;
58123;SDS011;46725;48.068;20.832;2022-08-01T19:34:29;3.90;;;2.00;;
58123;SDS011;46725;48.068;20.832;2022-08-01T19:39:23;4.63;;;2.70;;
58123;SDS011;46725;48.068;20.832;2022-08-01T19:51:35;4.10;;;2.40;;
58123;SDS011;46725;48.068;20.832;2022-08-01T19:54:04;4.80;;;2.28;;
58123;SDS011;46725;48.068;20.832;2022-08-01T19:58:57;4.07;;;2.00;;
58123;SDS011;46725;48.068;20.832;2022-08-01T20:01:23;5.03;;;2.55;;
58123;SDS011;46725;48.068;20.832;2022-08-01T20:06:16;4.55;;;2.38;;
58123;SDS011;46725;48.068;20.832;2022-08-01T20:08:42;4.90;;;2.40;;
58123;SDS011;46725;48.068;20.832;2022-08-01T20:11:09;6.00;;;2.40;;
58123;SDS011;46725;48.068;20.832;2022-08-01T20:13:36;5.30;;;2.70;;
58123;SDS011;46725;48.068;20.832;2022-08-01T20:16:03;4.90;;;2.93;;
58123;SDS011;46725;48.068;20.832;2022-08-01T20:18:30;7.90;;;3.00;;
58123;SDS011;46725;48.068;20.832;2022-08-01T20:20:56;5.13;;;2.80;;
58123;SDS011;46725;48.068;20.832;2022-08-01T20:23:23;4.72;;;2.78;;
58123;SDS011;46725;48.068;20.832;2022-08-01T20:25:51;5.10;;;2.72;;
58123;SDS011;46725;48.068;20.832;2022-08-01T20:28:23;4.53;;;2.60;;
58123;SDS011;46725;48.068;20.832;2022-08-01T20:31:01;4.60;;;2.50;;
58123;SDS011;46725;48.068;20.832;2022-08-01T20:33:40;4.53;;;2.58;;
58123;SDS011;46725;48.068;20.832;2022-08-01T20:39:12;6.85;;;2.72;;
58123;SDS011;46725;48.068;20.832;2022-08-01T20:44:58;6.60;;;2.75;;
58123;SDS011;46725;48.068;20.832;2022-08-01T20:47:26;5.40;;;2.88;;
58123;SDS011;46725;48.068;20.832;2022-08-01T20:49:52;4.32;;;2.65;;
58123;SDS011;46725;48.068;20.832;2022-08-01T21:05:11;5.15;;;2.60;;
58123;SDS011;46725;48.068;20.832;2022-08-01T21:07:51;7.80;;;3.20;;
58123;SDS011;46725;48.068;20.832;2022-08-01T21:12:47;5.00;;;3.00;;
58123;SDS011;46725;48.068;20.832;2022-08-01T21:15:23;6.38;;;2.80;;
58123;SDS011;46725;48.068;20.832;2022-08-01T21:17:56;5.60;;;3.10;;
58123;SDS011;46725;48.068;20.832;2022-08-01T21:20:27;9.50;;;3.10;;
58123;SDS011;46725;48.068;20.832;2022-08-01T21:23:13;6.13;;;2.78;;
58123;SDS011;46725;48.068;20.832;2022-08-01T21:25:42;5.82;;;3.00;;
58123;SDS011;46725;48.068;20.832;2022-08-01T21:28:10;5.78;;;3.30;;
58123;SDS011;46725;48.068;20.832;2022-08-01T22:33:54;5.40;;;2.92;;
58123;SDS011;46725;48.068;20.832;2022-08-01T22:46:14;4.68;;;2.72;;
58123;SDS011;46725;48.068;20.832;2022-08-01T22:51:54;5.20;;;3.40;;
58123;SDS011;46725;48.068;20.832;2022-08-01T22:53:59;5.07;;;2.63;;
58123;SDS011;46725;48.068;20.832;2022-08-01T22:56:27;9.02;;;3.08;;
58123;SDS011;46725;48.068;20.832;2022-08-01T22:58:54;4.60;;;2.90;;
58123;SDS011;46725;48.068;20.832;2022-08-01T23:01:23;4.72;;;2.88;;
58123;SDS011;46725;48.068;20.832;2022-08-01T23:03:51;8.75;;;3.50;;
58123;SDS011;46725;48.068;20.832;2022-08-01T23:06:20;4.07;;;2.60;;
58123;SDS011;46725;48.068;20.832;2022-08-01T23:08:47;5.70;;;3.10;;
58123;SDS011;46725;48.068;20.832;2022-08-01T23:11:13;5.18;;;2.80;;
58123;SDS011;46725;48.068;20.832;2022-08-01T23:13:40;5.45;;;2.90;;
58123;SDS011;46725;48.068;20.832;2022-08-01T23:16:06;5.50;;;3.03;;
58123;SDS011;46725;48.068;20.832;2022-08-01T23:18:32;7.63;;;3.00;;
58123;SDS011;46725;48.068;20.832;2022-08-01T23:20:59;6.13;;;3.45;;
58123;SDS011;46725;48.068;20.832;2022-08-01T23:23:26;7.10;;;2.72;;
58123;SDS011;46725;48.068;20.832;2022-08-01T23:25:53;4.68;;;2.90;;
58123;SDS011;46725;48.068;20.832;2022-08-01T23:28:19;5.38;;;3.10;;
58123;SDS011;46725;48.068;20.832;2022-08-01T23:30:46;5.30;;;3.05;;
58123;SDS011;46725;48.068;20.832;2022-08-01T23:33:12;4.93;;;3.22;;
58123;SDS011;46725;48.068;20.832;2022-08-01T23:35:38;6.10;;;3.20;;
58123;SDS011;46725;48.068;20.832;2022-08-01T23:38:05;5.78;;;3.03;;
58123;SDS011;46725;48.068;20.832;2022-08-01T23:40:31;4.82;;;3.10;;
58123;SDS011;46725;48.068;20.832;2022-08-01T23:42:58;5.43;;;3.08;;
58123;SDS011;46725;48.068;20.832;2022-08-01T23:45:24;7.90;;;3.42;;
58123;SDS011;46725;48.068;20.832;2022-08-01T23:50:16;6.00;;;3.30;;
58123;SDS011;46725;48.068;20.832;2022-08-01T23:55:08;5.75;;;3.20;;
58123;SDS011;46725;48.068;20.832;2022-08-01T23:57:34;6.50;;;3.33;;
